Time;durP1;ratioP1;P1;durP2;ratioP2;P2;SDS_P1;SDS_P2;PMS_P1;PMS_P2;Temp;Humidity;BMP_temperature;BMP_pressure;BME280_temperature;BME280_humidity;BME280_pressure;Samples;Min_cycle;Max_cycle;Signal;HPM_P1;HPM_P2
2023/12/16 06:00:13;;;;;;;8.97;7.90;;;;;;;;;;1740113;28;20233;-75
2023/12/16 06:01:06;;;;;;;8.43;7.57;;;;;;;;;;1741415;28;20195;-75
2023/12/16 06:01:57;;;;;;;7.75;6.88;;;;;;;;;;1741685;28;20294;-75
2023/12/16 06:02:49;;;;;;;7.50;6.80;;;;;;;;;;1741555;28;20556;-75
2023/12/16 06:03:40;;;;;;;8.38;7.47;;;;;;;;;;1741516;28;20203;-75
2023/12/16 06:04:32;;;;;;;7.40;6.70;;;;;;;;;;1741680;28;20656;-75
2023/12/16 06:05:24;;;;;;;7.30;6.60;;;;;;;;;;1741513;28;20580;-75
2023/12/16 06:06:15;;;;;;;8.18;7.38;;;;;;;;;;1741551;28;20202;-75
2023/12/16 06:07:07;;;;;;;8.30;7.50;;;;;;;;;;1741180;28;20203;-73
2023/12/16 06:07:58;;;;;;;7.35;6.65;;;;;;;;;;1741069;28;20669;-75
2023/12/16 06:08:51;;;;;;;6.63;6.13;;;;;;;;;;1741485;28;20206;-74
2023/12/16 06:09:42;;;;;;;7.68;6.90;;;;;;;;;;1741540;28;20206;-74
2023/12/16 06:10:33;;;;;;;7.50;6.80;;;;;;;;;;1741494;28;20215;-75
2023/12/16 06:11:25;;;;;;;7.95;7.20;;;;;;;;;;1741501;28;20198;-74
2023/12/16 06:12:16;;;;;;;7.40;6.80;;;;;;;;;;1741469;28;20578;-75
2023/12/16 06:13:07;;;;;;;7.20;6.60;;;;;;;;;;1741546;28;20207;-74
2023/12/16 06:13:59;;;;;;;7.50;6.80;;;;;;;;;;1741485;28;20205;-75
2023/12/16 06:14:50;;;;;;;7.13;6.53;;;;;;;;;;1741616;28;20207;-74
2023/12/16 06:15:43;;;;;;;7.95;7.25;;;;;;;;;;1741471;28;20207;-75
2023/12/16 06:16:35;;;;;;;7.80;7.10;;;;;;;;;;1741316;28;20215;-74
2023/12/16 06:17:26;;;;;;;7.97;7.28;;;;;;;;;;1740771;28;20454;-74
2023/12/16 06:18:17;;;;;;;8.75;7.40;;;;;;;;;;1741309;28;20250;-75
2023/12/16 06:19:09;;;;;;;8.52;7.72;;;;;;;;;;1741403;28;20199;-74
2023/12/16 06:20:00;;;;;;;9.48;8.57;;;;;;;;;;1741216;28;20199;-75
2023/12/16 06:20:51;;;;;;;8.23;7.53;;;;;;;;;;1741480;28;20603;-75
2023/12/16 06:21:43;;;;;;;9.85;7.43;;;;;;;;;;1741032;28;20219;-75
2023/12/16 06:22:35;;;;;;;7.55;6.85;;;;;;;;;;1741419;28;20211;-75
2023/12/16 06:23:27;;;;;;;8.60;7.75;;;;;;;;;;1741257;28;20207;-74
2023/12/16 06:24:19;;;;;;;7.93;7.15;;;;;;;;;;1741411;28;20238;-74
2023/12/16 06:25:10;;;;;;;7.40;6.80;;;;;;;;;;1741437;28;20203;-74
2023/12/16 06:26:01;;;;;;;7.53;6.82;;;;;;;;;;1740991;28;20202;-74
2023/12/16 06:26:54;;;;;;;9.70;7.15;;;;;;;;;;1741467;28;20256;-74
2023/12/16 06:27:46;;;;;;;6.97;6.38;;;;;;;;;;1740990;28;20203;-75
2023/12/16 06:28:38;;;;;;;9.27;6.72;;;;;;;;;;1740539;28;20644;-76
2023/12/16 06:29:29;;;;;;;7.88;6.93;;;;;;;;;;1741365;28;20234;-74
2023/12/16 06:30:21;;;;;;;7.65;6.95;;;;;;;;;;1742225;28;20264;-75
2023/12/16 06:31:16;;;;;;;6.75;6.15;;;;;;;;;;1748337;28;20205;-74
2023/12/16 06:32:08;;;;;;;6.85;6.15;;;;;;;;;;1741899;28;20264;-75
2023/12/16 06:32:59;;;;;;;7.07;6.47;;;;;;;;;;1747518;28;20195;-75
2023/12/16 06:33:50;;;;;;;7.82;7.13;;;;;;;;;;1746618;28;20247;-74
2023/12/16 06:34:42;;;;;;;7.18;6.47;;;;;;;;;;1748278;28;20343;-75
2023/12/16 06:35:33;;;;;;;6.60;6.00;;;;;;;;;;1744932;28;20218;-74
2023/12/16 06:36:25;;;;;;;9.27;8.27;;;;;;;;;;1741333;28;20667;-74
2023/12/16 06:37:16;;;;;;;7.82;6.80;;;;;;;;;;1740984;28;20604;-75
2023/12/16 06:38:08;;;;;;;7.65;6.95;;;;;;;;;;1741322;28;20238;-75
2023/12/16 06:38:59;;;;;;;7.65;6.95;;;;;;;;;;1746455;28;20195;-74
2023/12/16 06:39:51;;;;;;;7.80;7.00;;;;;;;;;;1744998;28;20210;-74
2023/12/16 06:40:42;;;;;;;7.47;6.78;;;;;;;;;;1748227;28;20687;-75
2023/12/16 06:41:34;;;;;;;7.95;7.15;;;;;;;;;;1742394;28;20276;-74
2023/12/16 06:42:25;;;;;;;7.93;7.15;;;;;;;;;;1741372;28;20214;-74
2023/12/16 06:43:17;;;;;;;8.25;7.45;;;;;;;;;;1741248;28;20272;-73
2023/12/16 06:44:09;;;;;;;7.65;6.95;;;;;;;;;;1744140;28;20191;-75
2023/12/16 06:45:00;;;;;;;8.23;7.40;;;;;;;;;;1745267;28;20196;-74
2023/12/16 06:45:51;;;;;;;8.60;7.80;;;;;;;;;;1741439;28;20689;-74
2023/12/16 06:46:44;;;;;;;7.68;6.97;;;;;;;;;;1741231;28;20210;-74
2023/12/16 06:47:37;;;;;;;8.02;7.30;;;;;;;;;;1741178;28;20208;-74
2023/12/16 06:48:28;;;;;;;7.75;7.05;;;;;;;;;;1748188;28;20226;-74
2023/12/16 06:49:20;;;;;;;7.45;6.75;;;;;;;;;;1741251;28;20215;-75
2023/12/16 06:50:11;;;;;;;8.20;7.40;;;;;;;;;;1741320;28;20200;-75
2023/12/16 06:51:02;;;;;;;8.05;7.25;;;;;;;;;;1741207;28;20778;-74
2023/12/16 06:51:54;;;;;;;7.88;7.10;;;;;;;;;;1741305;28;20836;-75
2023/12/16 06:52:46;;;;;;;8.50;7.72;;;;;;;;;;1741301;28;20211;-75
2023/12/16 06:53:38;;;;;;;8.88;8.07;;;;;;;;;;1742470;28;20203;-75
2023/12/16 06:54:29;;;;;;;9.10;8.30;;;;;;;;;;1745748;28;20209;-75
2023/12/16 06:55:21;;;;;;;8.70;7.90;;;;;;;;;;1741401;28;20401;-75
2023/12/16 06:56:12;;;;;;;9.15;8.30;;;;;;;;;;1739319;28;20206;-75
2023/12/16 06:57:05;;;;;;;8.45;7.65;;;;;;;;;;1740309;28;20244;-76
2023/12/16 06:57:56;;;;;;;8.23;7.43;;;;;;;;;;1736840;28;20240;-76
2023/12/16 06:58:47;;;;;;;8.07;7.38;;;;;;;;;;1738396;28;20286;-76
2023/12/16 06:59:39;;;;;;;8.35;7.57;;;;;;;;;;1734282;28;20223;-76
2023/12/16 07:00:31;;;;;;;9.82;8.88;;;;;;;;;;1739085;28;20203;-76
2023/12/16 07:01:23;;;;;;;8.55;7.75;;;;;;;;;;1741106;28;20252;-76
2023/12/16 07:02:16;;;;;;;8.70;7.80;;;;;;;;;;1741218;28;20253;-75
2023/12/16 07:03:07;;;;;;;8.60;7.78;;;;;;;;;;1741144;28;20206;-75
2023/12/16 07:03:59;;;;;;;8.40;7.70;;;;;;;;;;1745952;28;20205;-76
2023/12/16 07:04:50;;;;;;;8.57;7.88;;;;;;;;;;1741192;28;20198;-76
2023/12/16 07:05:42;;;;;;;7.43;6.63;;;;;;;;;;1741103;28;20205;-75
2023/12/16 07:06:34;;;;;;;7.85;7.15;;;;;;;;;;1748123;28;20669;-76
2023/12/16 07:07:25;;;;;;;8.35;7.18;;;;;;;;;;1747660;28;20546;-76
2023/12/16 07:08:16;;;;;;;7.57;6.97;;;;;;;;;;1741951;28;20742;-76
2023/12/16 07:09:08;;;;;;;7.15;6.45;;;;;;;;;;1741100;28;20655;-76
2023/12/16 07:10:00;;;;;;;8.20;7.40;;;;;;;;;;1741412;28;20215;-76
2023/12/16 07:10:51;;;;;;;8.05;7.25;;;;;;;;;;1747774;28;20195;-76
2023/12/16 07:11:43;;;;;;;8.95;8.05;;;;;;;;;;1745150;28;20268;-76
2023/12/16 07:12:34;;;;;;;8.13;7.38;;;;;;;;;;1741164;28;20668;-76
2023/12/16 07:13:26;;;;;;;8.00;6.90;;;;;;;;;;1745486;28;20197;-76
2023/12/16 07:14:17;;;;;;;7.70;7.00;;;;;;;;;;1741166;28;20203;-76
2023/12/16 07:15:09;;;;;;;8.45;7.65;;;;;;;;;;1738115;28;20246;-76
2023/12/16 07:16:04;;;;;;;10.73;8.80;;;;;;;;;;1738789;28;20191;-76
2023/12/16 07:16:55;;;;;;;9.48;7.63;;;;;;;;;;1741085;28;20260;-76
2023/12/16 07:17:48;;;;;;;7.95;7.15;;;;;;;;;;1740749;28;20294;-76
2023/12/16 07:18:40;;;;;;;9.80;7.50;;;;;;;;;;1741093;28;20210;-75
2023/12/16 07:19:31;;;;;;;9.07;7.78;;;;;;;;;;1744529;28;20222;-75
2023/12/16 07:20:23;;;;;;;8.68;7.78;;;;;;;;;;1740710;28;20609;-76
2023/12/16 07:21:15;;;;;;;8.10;7.30;;;;;;;;;;1741038;28;20210;-75
2023/12/16 07:22:06;;;;;;;8.70;7.90;;;;;;;;;;1741038;28;20223;-76
2023/12/16 07:22:58;;;;;;;8.43;7.35;;;;;;;;;;1741148;28;20618;-76
2023/12/16 07:23:49;;;;;;;7.90;7.10;;;;;;;;;;1740730;28;20264;-76
2023/12/16 07:24:40;;;;;;;8.25;7.55;;;;;;;;;;1741157;28;20640;-77
2023/12/16 07:25:33;;;;;;;8.13;6.85;;;;;;;;;;1739444;28;20278;-76
2023/12/16 07:26:24;;;;;;;8.48;7.57;;;;;;;;;;1740749;28;20357;-76
2023/12/16 07:27:16;;;;;;;7.85;7.15;;;;;;;;;;1740579;28;20729;-76
2023/12/16 07:28:07;;;;;;;9.60;7.88;;;;;;;;;;1741097;28;20260;-76
2023/12/16 07:28:58;;;;;;;8.20;7.40;;;;;;;;;;1741032;28;20606;-76
2023/12/16 07:29:52;;;;;;;7.90;7.25;;;;;;;;;;1741186;28;20203;-76
2023/12/16 07:30:43;;;;;;;8.10;7.30;;;;;;;;;;1740784;28;20272;-75
2023/12/16 07:31:35;;;;;;;7.65;6.95;;;;;;;;;;1740922;28;20191;-76
2023/12/16 07:32:26;;;;;;;6.50;5.95;;;;;;;;;;1741042;28;20210;-76
2023/12/16 07:33:19;;;;;;;8.20;7.40;;;;;;;;;;1740932;28;20241;-76
2023/12/16 07:34:10;;;;;;;8.85;7.15;;;;;;;;;;1741169;28;20281;-77
2023/12/16 07:35:02;;;;;;;7.90;7.10;;;;;;;;;;1741049;28;20286;-76
2023/12/16 07:35:55;;;;;;;7.75;7.05;;;;;;;;;;1741206;28;20199;-76
2023/12/16 07:36:46;;;;;;;8.75;7.95;;;;;;;;;;1740934;28;20207;-76
2023/12/16 07:37:37;;;;;;;7.35;6.75;;;;;;;;;;1740645;28;20199;-75
2023/12/16 07:38:29;;;;;;;7.97;7.25;;;;;;;;;;1740982;28;20202;-77
2023/12/16 07:39:20;;;;;;;7.78;7.07;;;;;;;;;;1740973;28;20253;-76
2023/12/16 07:40:11;;;;;;;7.68;6.97;;;;;;;;;;1741087;28;20199;-76
2023/12/16 07:41:04;;;;;;;8.02;7.30;;;;;;;;;;1741021;28;20198;-76
2023/12/16 07:41:55;;;;;;;8.05;7.35;;;;;;;;;;1740996;28;20233;-76
2023/12/16 07:42:46;;;;;;;7.72;7.10;;;;;;;;;;1740949;28;20210;-76
2023/12/16 07:43:40;;;;;;;7.35;6.72;;;;;;;;;;1741012;28;20198;-76
2023/12/16 07:44:31;;;;;;;8.38;7.63;;;;;;;;;;1741098;28;20207;-76
2023/12/16 07:45:22;;;;;;;9.13;8.32;;;;;;;;;;1741054;28;20260;-77
2023/12/16 07:46:14;;;;;;;8.02;7.32;;;;;;;;;;1741026;28;20569;-76
2023/12/16 07:47:05;;;;;;;7.75;6.88;;;;;;;;;;1740799;28;20195;-76
2023/12/16 07:47:56;;;;;;;9.20;8.18;;;;;;;;;;1741120;28;20286;-76
2023/12/16 07:48:50;;;;;;;7.65;6.88;;;;;;;;;;1741131;28;20260;-76
2023/12/16 07:49:41;;;;;;;7.93;7.15;;;;;;;;;;1741078;28;20214;-76
2023/12/16 07:50:32;;;;;;;8.13;7.43;;;;;;;;;;1740921;28;20195;-76
2023/12/16 07:51:25;;;;;;;7.93;7.22;;;;;;;;;;1740970;28;20221;-75
2023/12/16 07:52:16;;;;;;;7.63;6.93;;;;;;;;;;1741117;28;20290;-76
2023/12/16 07:53:07;;;;;;;9.98;7.10;;;;;;;;;;1741098;28;20207;-76
2023/12/16 07:53:59;;;;;;;7.78;7.07;;;;;;;;;;1741001;28;20296;-76
2023/12/16 07:54:50;;;;;;;8.43;7.60;;;;;;;;;;1741035;28;20199;-77
2023/12/16 07:55:43;;;;;;;7.68;6.88;;;;;;;;;;1740935;28;20556;-76
2023/12/16 07:56:34;;;;;;;7.95;7.25;;;;;;;;;;1741138;28;20211;-77
2023/12/16 07:57:25;;;;;;;7.35;6.68;;;;;;;;;;1740532;28;20211;-76
2023/12/16 07:58:17;;;;;;;7.80;7.10;;;;;;;;;;1741075;28;20218;-76
2023/12/16 07:59:08;;;;;;;7.95;7.25;;;;;;;;;;1740912;28;20207;-76
2023/12/16 08:00:00;;;;;;;7.90;7.15;;;;;;;;;;1740788;28;20587;-77
2023/12/16 08:00:51;;;;;;;7.20;6.55;;;;;;;;;;1741130;28;20561;-75
2023/12/16 08:01:43;;;;;;;7.95;7.22;;;;;;;;;;1740774;28;20260;-75
2023/12/16 08:02:35;;;;;;;7.68;7.03;;;;;;;;;;1740760;28;20214;-75
2023/12/16 08:03:27;;;;;;;8.32;7.63;;;;;;;;;;1740878;28;20725;-75
2023/12/16 08:04:20;;;;;;;11.05;7.10;;;;;;;;;;1740908;28;20199;-75
2023/12/16 08:05:11;;;;;;;7.88;7.07;;;;;;;;;;1740954;28;20210;-75
2023/12/16 08:06:02;;;;;;;7.97;7.20;;;;;;;;;;1740878;28;20199;-75
2023/12/16 08:06:54;;;;;;;7.72;7.13;;;;;;;;;;1740965;28;20223;-73
2023/12/16 08:07:46;;;;;;;7.65;6.95;;;;;;;;;;1740510;28;20199;-74
2023/12/16 08:08:38;;;;;;;8.63;7.82;;;;;;;;;;1740889;28;20199;-74
2023/12/16 08:09:31;;;;;;;8.27;7.47;;;;;;;;;;1740782;28;20244;-74
2023/12/16 08:10:22;;;;;;;7.70;7.00;;;;;;;;;;1740867;28;20226;-75
2023/12/16 08:11:13;;;;;;;7.90;7.18;;;;;;;;;;1740949;28;20210;-74
2023/12/16 08:12:05;;;;;;;7.20;6.53;;;;;;;;;;1740917;28;20195;-75
2023/12/16 08:12:56;;;;;;;7.18;6.50;;;;;;;;;;1740974;28;20203;-75
2023/12/16 08:13:48;;;;;;;7.75;6.95;;;;;;;;;;1740653;28;20195;-74
2023/12/16 08:14:40;;;;;;;7.25;6.65;;;;;;;;;;1740870;28;20230;-75
2023/12/16 08:15:31;;;;;;;8.38;7.30;;;;;;;;;;1740970;28;20222;-76
2023/12/16 08:16:22;;;;;;;6.97;6.30;;;;;;;;;;1740720;28;20203;-75
2023/12/16 08:17:14;;;;;;;7.68;6.97;;;;;;;;;;1742175;28;20199;-75
2023/12/16 08:18:07;;;;;;;7.55;6.85;;;;;;;;;;1743926;28;20575;-88
2023/12/16 08:18:58;;;;;;;6.90;6.30;;;;;;;;;;1746210;28;20226;-88
2023/12/16 08:19:51;;;;;;;7.20;6.50;;;;;;;;;;1742955;28;20198;-87
2023/12/16 08:20:43;;;;;;;6.88;6.30;;;;;;;;;;1741348;28;20671;-89
2023/12/16 08:21:35;;;;;;;7.05;6.47;;;;;;;;;;1741748;28;20203;-89
2023/12/16 08:22:26;;;;;;;7.40;6.70;;;;;;;;;;1741105;28;20237;-87
2023/12/16 08:23:18;;;;;;;7.20;6.50;;;;;;;;;;1741971;28;20207;-88
2023/12/16 08:24:10;;;;;;;6.43;5.93;;;;;;;;;;1742204;28;20202;-88
2023/12/16 08:25:01;;;;;;;7.57;6.88;;;;;;;;;;1741928;28;20214;-88
2023/12/16 08:25:53;;;;;;;7.20;6.60;;;;;;;;;;1741268;28;20223;-88
2023/12/16 08:26:47;;;;;;;7.60;6.95;;;;;;;;;;1741474;28;20203;-88
2023/12/16 08:27:38;;;;;;;7.85;7.18;;;;;;;;;;1741146;28;20199;-88
2023/12/16 08:28:31;;;;;;;7.18;6.50;;;;;;;;;;1741528;28;20207;-87
2023/12/16 08:29:22;;;;;;;7.55;6.75;;;;;;;;;;1741317;28;20223;-88
2023/12/16 08:30:14;;;;;;;9.38;6.75;;;;;;;;;;1741480;28;20268;-88
2023/12/16 08:31:06;;;;;;;6.95;6.35;;;;;;;;;;1742087;28;20195;-87
2023/12/16 08:31:57;;;;;;;7.47;6.78;;;;;;;;;;1742898;28;20213;-88
2023/12/16 08:32:49;;;;;;;7.85;7.15;;;;;;;;;;1742856;28;20203;-88
2023/12/16 08:33:40;;;;;;;7.35;6.70;;;;;;;;;;1742863;28;20211;-87
2023/12/16 08:34:33;;;;;;;7.68;6.85;;;;;;;;;;1742645;28;20199;-88
2023/12/16 08:35:28;;;;;;;6.85;6.35;;;;;;;;;;1742745;28;20224;-88
2023/12/16 08:36:19;;;;;;;7.10;6.50;;;;;;;;;;1742493;28;20250;-89
2023/12/16 08:37:10;;;;;;;6.95;6.35;;;;;;;;;;1742117;28;20199;-88
2023/12/16 08:38:03;;;;;;;7.22;6.63;;;;;;;;;;1742728;28;20199;-88
2023/12/16 08:38:54;;;;;;;9.65;7.90;;;;;;;;;;1742671;28;20604;-88
2023/12/16 08:39:45;;;;;;;6.28;5.78;;;;;;;;;;1742434;28;20744;-88
2023/12/16 08:40:37;;;;;;;7.18;6.47;;;;;;;;;;1742468;28;20199;-89
2023/12/16 08:41:28;;;;;;;7.03;6.35;;;;;;;;;;1742337;28;20619;-89
2023/12/16 08:42:19;;;;;;;6.45;5.95;;;;;;;;;;1742184;28;20285;-88
2023/12/16 08:43:11;;;;;;;7.05;6.35;;;;;;;;;;1744341;28;20203;-87
2023/12/16 08:44:03;;;;;;;7.05;6.35;;;;;;;;;;1744775;28;20207;-87
2023/12/16 08:44:54;;;;;;;7.18;6.57;;;;;;;;;;1744083;28;20210;-87
2023/12/16 08:45:46;;;;;;;6.35;5.80;;;;;;;;;;1744652;28;20293;-86
2023/12/16 08:46:40;;;;;;;7.20;6.50;;;;;;;;;;1744664;28;20203;-86
2023/12/16 08:47:31;;;;;;;6.70;6.10;;;;;;;;;;1745269;28;20195;-86
2023/12/16 08:48:23;;;;;;;6.80;6.07;;;;;;;;;;1744613;28;20195;-88
2023/12/16 08:49:14;;;;;;;6.50;5.90;;;;;;;;;;1744401;28;20227;-83
2023/12/16 08:50:06;;;;;;;6.95;6.35;;;;;;;;;;1744437;28;20196;-82
2023/12/16 08:51:00;;;;;;;7.43;6.72;;;;;;;;;;1744526;28;20214;-82
2023/12/16 08:51:52;;;;;;;6.30;5.80;;;;;;;;;;1744366;28;20213;-83
2023/12/16 08:52:46;;;;;;;7.03;6.25;;;;;;;;;;1744193;28;20201;-87
2023/12/16 08:53:37;;;;;;;7.38;6.50;;;;;;;;;;1745019;28;20214;-87
2023/12/16 08:54:28;;;;;;;8.05;6.68;;;;;;;;;;1745248;28;20207;-86
2023/12/16 08:55:21;;;;;;;7.53;6.82;;;;;;;;;;1744876;28;20622;-86
2023/12/16 08:56:13;;;;;;;6.43;5.82;;;;;;;;;;1744809;28;20268;-86
2023/12/16 08:57:06;;;;;;;6.50;6.00;;;;;;;;;;1745038;28;20198;-86
2023/12/16 08:57:57;;;;;;;7.38;6.75;;;;;;;;;;1744029;28;20744;-84
2023/12/16 08:58:48;;;;;;;9.05;6.68;;;;;;;;;;1743470;28;20885;-86
2023/12/16 08:59:40;;;;;;;6.15;5.65;;;;;;;;;;1742193;28;20305;-87
2023/12/16 09:00:31;;;;;;;6.65;6.05;;;;;;;;;;1742209;28;20203;-88
2023/12/16 09:01:23;;;;;;;6.97;6.38;;;;;;;;;;1742600;28;20269;-86
2023/12/16 09:02:15;;;;;;;7.00;6.18;;;;;;;;;;1742327;28;20207;-87
2023/12/16 09:03:07;;;;;;;6.90;6.30;;;;;;;;;;1743392;28;20206;-85
2023/12/16 09:03:58;;;;;;;7.07;6.43;;;;;;;;;;1742757;28;20218;-85
2023/12/16 09:04:50;;;;;;;6.80;6.20;;;;;;;;;;1743434;28;20195;-84
2023/12/16 09:05:41;;;;;;;6.60;6.05;;;;;;;;;;1743875;28;20242;-75
2023/12/16 09:06:39;;;;;;;6.30;5.70;;;;;;;;;;1742133;28;20197;-76
2023/12/16 09:07:31;;;;;;;6.80;6.05;;;;;;;;;;1741729;28;20207;-76
2023/12/16 09:08:22;;;;;;;6.60;6.03;;;;;;;;;;1742023;28;20218;-77
2023/12/16 09:09:14;;;;;;;6.63;6.03;;;;;;;;;;1741799;28;20218;-76
2023/12/16 09:10:05;;;;;;;7.18;6.55;;;;;;;;;;1742257;28;20214;-76
2023/12/16 09:10:56;;;;;;;7.13;6.43;;;;;;;;;;1742147;28;20199;-81
2023/12/16 09:11:49;;;;;;;6.65;6.10;;;;;;;;;;1742032;28;20560;-78
2023/12/16 09:12:40;;;;;;;6.60;6.00;;;;;;;;;;1742301;28;20226;-78
2023/12/16 09:13:31;;;;;;;7.00;6.30;;;;;;;;;;1742117;28;20198;-77
2023/12/16 09:14:23;;;;;;;7.10;6.50;;;;;;;;;;1742066;28;20272;-77
2023/12/16 09:15:15;;;;;;;7.00;6.28;;;;;;;;;;1742168;28;20290;-77
2023/12/16 09:16:07;;;;;;;6.68;5.95;;;;;;;;;;1742057;28;20230;-78
2023/12/16 09:16:59;;;;;;;6.20;5.40;;;;;;;;;;1743490;28;20191;-77
2023/12/16 09:17:50;;;;;;;6.95;5.97;;;;;;;;;;1741758;28;20211;-77
2023/12/16 09:18:42;;;;;;;6.50;5.80;;;;;;;;;;1742127;28;20241;-78
2023/12/16 09:19:33;;;;;;;6.25;5.65;;;;;;;;;;1742270;28;20227;-78
2023/12/16 09:20:25;;;;;;;6.32;5.72;;;;;;;;;;1742022;28;20233;-76
2023/12/16 09:21:16;;;;;;;6.22;5.72;;;;;;;;;;1742039;28;20219;-75
2023/12/16 09:22:10;;;;;;;6.68;6.07;;;;;;;;;;1741893;28;20202;-78
2023/12/16 09:23:01;;;;;;;8.40;6.05;;;;;;;;;;1742190;28;20222;-77
2023/12/16 09:23:52;;;;;;;7.03;6.43;;;;;;;;;;1742079;28;20199;-78
2023/12/16 09:24:44;;;;;;;6.45;5.90;;;;;;;;;;1739390;28;20647;-79
2023/12/16 09:25:35;;;;;;;6.53;5.80;;;;;;;;;;1742298;28;20234;-78
2023/12/16 09:26:27;;;;;;;6.50;5.90;;;;;;;;;;1742348;28;20226;-79
2023/12/16 09:27:18;;;;;;;6.25;5.65;;;;;;;;;;1742139;28;20207;-78
2023/12/16 09:28:09;;;;;;;6.78;6.18;;;;;;;;;;1742645;28;20225;-77
2023/12/16 09:29:03;;;;;;;5.85;5.35;;;;;;;;;;1742040;28;20203;-77
2023/12/16 09:29:54;;;;;;;7.20;6.60;;;;;;;;;;1742347;28;20199;-78
2023/12/16 09:30:45;;;;;;;6.53;5.95;;;;;;;;;;1742140;28;20260;-78
2023/12/16 09:31:37;;;;;;;5.43;4.93;;;;;;;;;;1742413;28;20646;-78
2023/12/16 09:32:28;;;;;;;8.88;5.78;;;;;;;;;;1742269;28;20225;-78
2023/12/16 09:33:19;;;;;;;6.70;5.53;;;;;;;;;;1742322;28;20227;-78
2023/12/16 09:34:11;;;;;;;6.30;5.65;;;;;;;;;;1742724;28;20217;-77
2023/12/16 09:35:03;;;;;;;7.35;6.65;;;;;;;;;;1735717;28;20202;-77
2023/12/16 09:35:54;;;;;;;5.88;5.38;;;;;;;;;;1735533;28;20196;-78
2023/12/16 09:36:46;;;;;;;5.93;5.43;;;;;;;;;;1740606;28;20225;-77
2023/12/16 09:37:38;;;;;;;6.15;5.50;;;;;;;;;;1741772;28;20206;-78
2023/12/16 09:38:29;;;;;;;6.68;6.07;;;;;;;;;;1742397;28;20207;-78
2023/12/16 09:39:22;;;;;;;6.70;6.10;;;;;;;;;;1740227;28;20831;-77
2023/12/16 09:40:14;;;;;;;6.10;5.60;;;;;;;;;;1741711;28;20571;-77
2023/12/16 09:41:05;;;;;;;6.70;6.10;;;;;;;;;;1741570;28;20199;-76
2023/12/16 09:41:58;;;;;;;6.40;5.90;;;;;;;;;;1741850;28;20261;-77
2023/12/16 09:42:51;;;;;;;6.63;6.00;;;;;;;;;;1741646;28;20695;-77
2023/12/16 09:43:43;;;;;;;6.70;6.10;;;;;;;;;;1738923;28;20195;-78
2023/12/16 09:44:37;;;;;;;6.63;6.13;;;;;;;;;;1743016;28;20282;-78
2023/12/16 09:45:29;;;;;;;6.72;6.18;;;;;;;;;;1748321;28;20291;-78
2023/12/16 09:46:23;;;;;;;6.20;5.60;;;;;;;;;;1742665;28;20682;-77
2023/12/16 09:47:16;;;;;;;6.22;5.63;;;;;;;;;;1746348;28;20214;-78
2023/12/16 09:48:07;;;;;;;5.90;5.40;;;;;;;;;;1744512;28;20575;-78
2023/12/16 09:48:59;;;;;;;6.20;5.70;;;;;;;;;;1745341;28;20282;-78
2023/12/16 09:49:52;;;;;;;6.18;5.68;;;;;;;;;;1744877;28;20561;-78
2023/12/16 09:50:44;;;;;;;5.88;5.38;;;;;;;;;;1748394;28;20206;-78
2023/12/16 09:51:36;;;;;;;7.65;5.60;;;;;;;;;;1747000;28;20193;-77
2023/12/16 09:52:27;;;;;;;6.10;5.60;;;;;;;;;;1742287;28;20202;-77
2023/12/16 09:53:19;;;;;;;5.97;5.40;;;;;;;;;;1742153;28;20253;-78
2023/12/16 09:54:11;;;;;;;5.70;5.10;;;;;;;;;;1746582;28;20210;-79
2023/12/16 09:55:04;;;;;;;6.53;5.82;;;;;;;;;;1749390;28;20195;-78
2023/12/16 09:55:56;;;;;;;6.47;5.95;;;;;;;;;;1743260;28;20203;-78
2023/12/16 09:56:49;;;;;;;6.03;5.53;;;;;;;;;;1742595;28;20199;-77
2023/12/16 09:57:40;;;;;;;6.07;5.53;;;;;;;;;;1742060;28;20238;-78
2023/12/16 09:58:34;;;;;;;6.47;5.93;;;;;;;;;;1749131;28;20729;-78
2023/12/16 09:59:25;;;;;;;6.47;5.88;;;;;;;;;;1745449;28;20239;-78
2023/12/16 10:00:18;;;;;;;6.60;5.45;;;;;;;;;;1747720;28;20195;-78
2023/12/16 10:01:10;;;;;;;6.15;5.55;;;;;;;;;;1744255;28;20583;-78
2023/12/16 10:02:03;;;;;;;7.25;6.32;;;;;;;;;;1745548;28;20199;-78
2023/12/16 10:02:56;;;;;;;6.72;6.15;;;;;;;;;;1743320;28;20251;-78
2023/12/16 10:03:48;;;;;;;9.15;6.50;;;;;;;;;;1741886;28;20214;-78
2023/12/16 10:04:40;;;;;;;8.48;6.80;;;;;;;;;;1742589;28;20234;-78
2023/12/16 10:05:33;;;;;;;6.70;6.00;;;;;;;;;;1742430;28;20211;-78
2023/12/16 10:06:25;;;;;;;5.65;5.22;;;;;;;;;;1742291;28;20210;-78
2023/12/16 10:07:16;;;;;;;5.45;5.05;;;;;;;;;;1740790;28;20207;-74
2023/12/16 10:08:08;;;;;;;6.10;5.50;;;;;;;;;;1741065;28;20195;-74
2023/12/16 10:09:02;;;;;;;5.97;5.47;;;;;;;;;;1740711;28;20298;-75
2023/12/16 10:09:53;;;;;;;6.68;6.00;;;;;;;;;;1741226;28;20230;-75
2023/12/16 10:10:44;;;;;;;7.68;5.28;;;;;;;;;;1741478;28;20207;-75
2023/12/16 10:11:40;;;;;;;6.85;6.15;;;;;;;;;;1741621;28;20336;-74
2023/12/16 10:12:34;;;;;;;7.35;5.70;;;;;;;;;;1741633;28;20211;-73
2023/12/16 10:13:25;;;;;;;7.32;5.60;;;;;;;;;;1741382;28;20253;-74
2023/12/16 10:14:17;;;;;;;8.02;5.97;;;;;;;;;;1740741;28;20203;-74
2023/12/16 10:15:09;;;;;;;6.55;5.22;;;;;;;;;;1740568;28;20212;-74
2023/12/16 10:16:01;;;;;;;5.80;5.30;;;;;;;;;;1740831;28;20213;-74
2023/12/16 10:17:02;;;;;;;6.15;5.45;;;;;;;;;;1741210;28;20210;-75
2023/12/16 10:17:53;;;;;;;5.78;5.28;;;;;;;;;;1741487;28;20195;-74
2023/12/16 10:18:46;;;;;;;5.50;5.00;;;;;;;;;;1740883;28;20553;-74
2023/12/16 10:19:37;;;;;;;5.50;5.00;;;;;;;;;;1740729;28;20593;-74
2023/12/16 10:20:29;;;;;;;5.18;4.78;;;;;;;;;;1741389;28;20261;-74
2023/12/16 10:21:21;;;;;;;5.35;4.85;;;;;;;;;;1741426;28;20597;-74
2023/12/16 10:22:14;;;;;;;5.78;5.20;;;;;;;;;;1741090;28;20573;-74
2023/12/16 10:23:08;;;;;;;5.47;4.95;;;;;;;;;;1741428;28;20229;-75
2023/12/16 10:23:59;;;;;;;6.00;5.40;;;;;;;;;;1741441;28;20199;-75
2023/12/16 10:24:53;;;;;;;8.02;5.40;;;;;;;;;;1741438;28;20231;-74
2023/12/16 10:25:44;;;;;;;5.10;4.70;;;;;;;;;;1741388;28;20203;-74
2023/12/16 10:26:42;;;;;;;5.82;4.70;;;;;;;;;;1741534;28;20256;-74
2023/12/16 10:27:33;;;;;;;5.07;4.65;;;;;;;;;;1741138;28;20574;-74
2023/12/16 10:28:28;;;;;;;5.10;4.63;;;;;;;;;;1741354;28;20214;-74
2023/12/16 10:29:19;;;;;;;5.95;5.35;;;;;;;;;;1741391;28;20227;-74
2023/12/16 10:30:11;;;;;;;6.20;5.60;;;;;;;;;;1741136;28;20207;-74
2023/12/16 10:31:03;;;;;;;5.50;5.00;;;;;;;;;;1734599;28;20716;-75
2023/12/16 10:31:54;;;;;;;5.82;5.28;;;;;;;;;;1738818;28;20211;-74
2023/12/16 10:32:45;;;;;;;11.00;9.07;;;;;;;;;;1741382;28;20203;-73
2023/12/16 10:33:37;;;;;;;6.65;5.88;;;;;;;;;;1741424;28;20210;-74
2023/12/16 10:34:29;;;;;;;5.85;5.35;;;;;;;;;;1741437;28;20683;-74
2023/12/16 10:35:23;;;;;;;5.28;4.88;;;;;;;;;;1741371;28;20199;-74
2023/12/16 10:36:15;;;;;;;7.00;4.60;;;;;;;;;;1741355;28;20261;-74
2023/12/16 10:37:07;;;;;;;5.15;4.65;;;;;;;;;;1741138;28;20206;-74
2023/12/16 10:37:58;;;;;;;4.72;4.32;;;;;;;;;;1734560;28;20208;-74
2023/12/16 10:38:49;;;;;;;5.55;4.70;;;;;;;;;;1734535;28;20567;-74
2023/12/16 10:39:42;;;;;;;5.00;4.55;;;;;;;;;;1740012;28;20207;-74
2023/12/16 10:40:37;;;;;;;5.80;5.20;;;;;;;;;;1741436;28;20207;-74
2023/12/16 10:41:29;;;;;;;5.05;4.65;;;;;;;;;;1741316;28;20211;-74
2023/12/16 10:42:20;;;;;;;6.57;4.65;;;;;;;;;;1741440;28;20203;-74
2023/12/16 10:43:11;;;;;;;5.35;4.57;;;;;;;;;;1741214;28;20234;-74
2023/12/16 10:44:03;;;;;;;5.20;4.75;;;;;;;;;;1741039;28;20199;-74
2023/12/16 10:44:54;;;;;;;5.10;4.70;;;;;;;;;;1741406;28;20202;-74
2023/12/16 10:45:46;;;;;;;7.20;4.50;;;;;;;;;;1741317;28;20229;-73
2023/12/16 10:46:41;;;;;;;4.82;4.43;;;;;;;;;;1741385;28;20207;-74
2023/12/16 10:47:32;;;;;;;5.05;4.60;;;;;;;;;;1734145;28;20211;-73
2023/12/16 10:48:27;;;;;;;5.75;5.05;;;;;;;;;;1734454;28;20196;-74
2023/12/16 10:49:18;;;;;;;5.10;4.63;;;;;;;;;;1740631;28;20235;-73
2023/12/16 10:50:12;;;;;;;6.82;5.70;;;;;;;;;;1741312;28;20199;-73
2023/12/16 10:51:05;;;;;;;5.85;5.25;;;;;;;;;;1741145;28;20206;-74
2023/12/16 10:52:06;;;;;;;5.85;5.30;;;;;;;;;;1741385;28;20226;-74
2023/12/16 10:52:58;;;;;;;5.05;4.55;;;;;;;;;;1741341;28;20725;-74
2023/12/16 10:53:53;;;;;;;4.80;4.30;;;;;;;;;;1741279;28;20263;-74
2023/12/16 10:54:45;;;;;;;5.30;4.78;;;;;;;;;;1741206;28;20211;-74
2023/12/16 10:55:41;;;;;;;5.35;4.85;;;;;;;;;;1741341;28;20194;-73
2023/12/16 10:56:36;;;;;;;4.60;4.18;;;;;;;;;;1741281;28;20203;-74
2023/12/16 10:57:30;;;;;;;5.15;4.68;;;;;;;;;;1740959;28;20282;-74
2023/12/16 10:58:23;;;;;;;4.90;4.43;;;;;;;;;;1741224;28;20214;-74
2023/12/16 10:59:18;;;;;;;7.07;6.25;;;;;;;;;;1741210;28;20226;-74
2023/12/16 11:00:12;;;;;;;5.95;5.45;;;;;;;;;;1741244;28;20195;-74
2023/12/16 11:01:07;;;;;;;7.03;6.32;;;;;;;;;;1740964;28;20245;-74
2023/12/16 11:01:59;;;;;;;5.85;5.22;;;;;;;;;;1741236;28;20211;-74
2023/12/16 11:02:56;;;;;;;5.28;4.72;;;;;;;;;;1741110;28;20293;-74
2023/12/16 11:03:51;;;;;;;7.78;5.75;;;;;;;;;;1741204;28;20199;-73
2023/12/16 11:04:43;;;;;;;5.50;4.93;;;;;;;;;;1741188;28;20341;-74
2023/12/16 11:05:38;;;;;;;7.90;5.50;;;;;;;;;;1741225;28;20195;-74
2023/12/16 11:06:34;;;;;;;5.35;4.85;;;;;;;;;;1741685;28;20207;-74
2023/12/16 11:07:28;;;;;;;6.10;5.47;;;;;;;;;;1740893;28;20686;-74
2023/12/16 11:08:20;;;;;;;5.75;5.25;;;;;;;;;;1741205;28;20203;-74
2023/12/16 11:09:12;;;;;;;6.68;5.85;;;;;;;;;;1741200;28;20386;-74
2023/12/16 11:10:05;;;;;;;4.85;4.45;;;;;;;;;;1741153;28;20581;-74
2023/12/16 11:10:59;;;;;;;4.80;4.40;;;;;;;;;;1741266;28;20211;-74
2023/12/16 11:11:51;;;;;;;5.50;4.55;;;;;;;;;;1741284;28;20207;-74